Time;durP1;ratioP1;P1;durP2;ratioP2;P2;SDS_P1;SDS_P2;PMS_P1;PMS_P2;Temp;Humidity;BMP_temperature;BMP_pressure;BME280_temperature;BME280_humidity;BME280_pressure;Samples;Min_cycle;Max_cycle;Signal;HPM_P1;HPM_P2
2022/03/27 00:01:03;;;;;;;23.83;18.45;;;5.90;99.90;;;5.41;81.52;102597.72;4976092;28;20188;-68
2022/03/27 00:03:33;;;;;;;21.33;18.10;;;5.80;99.90;;;5.40;81.88;102598.69;4976132;28;20215;-68
2022/03/27 00:06:03;;;;;;;22.15;18.60;;;5.70;99.90;;;5.21;81.63;102591.31;4976308;28;20267;-70
2022/03/27 00:08:31;;;;;;;25.98;19.50;;;5.60;99.90;;;5.35;82.20;102587.47;4976145;28;20219;-68
2022/03/27 00:13:46;;;;;;;20.58;18.38;;;5.60;99.90;;;5.09;82.56;102594.13;4976301;28;20701;-69
2022/03/27 00:16:15;;;;;;;26.48;19.13;;;5.50;99.90;;;5.22;82.52;102592.16;4976427;28;20566;-69
2022/03/27 00:18:45;;;;;;;25.60;18.95;;;5.60;99.90;;;5.28;82.00;102597.00;4976552;28;20207;-69
2022/03/27 00:21:15;;;;;;;24.27;18.63;;;5.60;99.90;;;5.40;81.81;102606.75;4975725;28;20274;-68
2022/03/27 00:23:45;;;;;;;27.17;20.05;;;5.60;99.90;;;5.56;81.30;102609.88;4975490;28;20295;-68
2022/03/27 00:26:13;;;;;;;23.20;19.35;;;5.80;99.90;;;5.29;81.62;102603.22;4975960;28;20747;-68
2022/03/27 00:28:42;;;;;;;22.52;20.08;;;5.70;99.90;;;5.06;81.98;102607.81;4975791;28;20211;-69
2022/03/27 00:31:12;;;;;;;29.48;20.50;;;5.50;99.90;;;5.19;82.29;102612.03;4975989;28;20187;-69
2022/03/27 00:33:43;;;;;;;25.33;21.23;;;5.50;99.90;;;5.34;82.07;102601.00;4976205;28;20295;-68
2022/03/27 00:36:16;;;;;;;23.52;20.20;;;5.60;99.90;;;5.26;82.03;102601.66;4975950;28;20528;-68
2022/03/27 00:38:46;;;;;;;24.42;20.55;;;5.60;99.90;;;5.00;82.01;102609.16;4975359;28;20187;-69
2022/03/27 00:41:15;;;;;;;27.27;22.00;;;5.40;99.90;;;4.89;82.60;102605.66;4975697;28;20175;-68
2022/03/27 00:43:45;;;;;;;30.45;24.40;;;5.30;99.90;;;4.82;82.61;102600.78;4975580;28;20234;-68
2022/03/27 00:46:14;;;;;;;24.63;20.17;;;5.20;99.90;;;5.01;82.69;102597.44;4975648;28;20187;-68
2022/03/27 00:48:43;;;;;;;30.58;22.58;;;5.30;99.90;;;4.99;83.09;102599.38;4975230;28;20196;-69
2022/03/27 00:51:13;;;;;;;30.67;20.50;;;5.30;99.90;;;4.93;82.83;102602.59;4975497;28;20660;-68
2022/03/27 00:53:42;;;;;;;25.85;21.80;;;5.30;99.90;;;5.00;83.12;102601.09;4975080;28;20207;-69
2022/03/27 00:56:11;;;;;;;28.83;23.35;;;5.30;99.90;;;4.92;82.91;102598.19;4975789;28;20171;-69
2022/03/27 00:58:40;;;;;;;27.42;21.30;;;5.30;99.90;;;4.96;82.86;102596.97;4975111;28;20183;-70
2022/03/27 01:01:20;;;;;;;24.45;19.98;;;5.30;99.90;;;4.99;82.65;102598.53;4975140;28;20656;-69
2022/03/27 01:03:49;;;;;;;24.42;21.00;;;5.30;99.90;;;5.06;82.29;102594.38;4975019;28;20586;-68
2022/03/27 01:06:33;;;;;;;22.92;20.50;;;5.30;99.90;;;4.93;82.41;102593.69;4975067;28;20568;-69
2022/03/27 01:11:53;;;;;;;25.58;19.75;;;5.20;99.90;;;4.91;82.55;102588.44;4975424;28;20215;-69
2022/03/27 01:14:28;;;;;;;23.00;19.35;;;5.20;99.90;;;4.84;82.91;102586.38;4974913;28;20266;-69
2022/03/27 01:17:05;;;;;;;23.30;20.13;;;5.20;99.90;;;4.82;82.78;102584.69;4974885;28;20226;-67
2022/03/27 01:19:34;;;;;;;21.98;19.45;;;5.20;99.90;;;4.73;82.83;102584.56;4975075;28;20637;-69
2022/03/27 01:22:04;;;;;;;23.08;19.85;;;5.10;99.90;;;4.84;82.97;102592.59;4974739;28;20673;-69
2022/03/27 01:24:34;;;;;;;26.33;21.33;;;5.10;99.90;;;4.60;82.90;102591.88;4975593;28;20203;-69
2022/03/27 01:27:03;;;;;;;27.77;19.00;;;5.00;99.90;;;4.47;83.30;102589.31;4974844;28;20172;-69
2022/03/27 01:29:32;;;;;;;25.85;22.00;;;4.90;99.90;;;4.52;83.58;102586.25;4974623;28;20242;-69
2022/03/27 01:32:03;;;;;;;23.20;20.42;;;4.90;99.90;;;4.54;83.30;102593.22;4975058;28;20198;-69
2022/03/27 01:34:33;;;;;;;27.38;20.27;;;4.90;99.90;;;4.56;83.42;102588.56;4974901;28;20175;-69
2022/03/27 01:37:09;;;;;;;28.23;24.63;;;4.90;99.90;;;4.59;83.06;102599.09;4974396;28;20188;-68
2022/03/27 01:39:39;;;;;;;39.55;27.67;;;4.90;99.90;;;4.49;82.72;102590.06;4974402;28;20242;-69
2022/03/27 01:42:09;;;;;;;24.27;20.40;;;4.90;99.90;;;4.62;82.83;102588.09;4974278;28;20676;-69
2022/03/27 01:44:38;;;;;;;25.40;20.50;;;4.90;99.90;;;4.59;82.89;102606.28;4974279;28;20210;-69
2022/03/27 01:47:07;;;;;;;29.70;22.80;;;4.90;99.90;;;4.39;82.98;102602.47;4974233;28;20194;-68
2022/03/27 01:49:37;;;;;;;34.47;25.23;;;4.80;99.90;;;4.29;83.07;102602.34;4974165;28;20202;-69
2022/03/27 01:52:08;;;;;;;27.23;23.92;;;4.70;99.90;;;4.35;83.07;102596.50;4974404;28;20191;-69
2022/03/27 01:54:36;;;;;;;28.25;23.25;;;4.70;99.90;;;4.35;82.97;102599.19;4974438;28;20279;-67
2022/03/27 01:57:05;;;;;;;27.55;24.55;;;4.70;99.90;;;4.25;83.41;102602.72;4974077;28;20183;-68
2022/03/27 01:59:35;;;;;;;34.45;27.83;;;4.60;99.90;;;4.24;83.27;102603.69;4974430;28;20242;-69
2022/03/27 02:02:04;;;;;;;36.67;26.73;;;4.60;99.90;;;4.27;83.22;102598.06;4974053;28;20191;-69
2022/03/27 02:04:34;;;;;;;36.03;27.13;;;4.60;99.90;;;4.41;83.26;102608.56;4973858;28;20505;-68
2022/03/27 02:07:03;;;;;;;27.75;21.58;;;4.70;99.90;;;4.35;82.72;102609.06;4973803;28;20218;-69
2022/03/27 02:09:33;;;;;;;32.63;28.10;;;4.70;99.90;;;4.21;83.33;102602.06;4973515;28;20211;-69
2022/03/27 02:12:02;;;;;;;34.45;28.38;;;4.60;99.90;;;4.14;83.27;102610.72;4973642;28;20176;-69
2022/03/27 02:14:31;;;;;;;35.22;30.60;;;4.50;99.90;;;4.31;82.56;102610.25;4973989;28;20183;-67
2022/03/27 02:16:59;;;;;;;36.97;29.17;;;4.60;99.90;;;4.24;82.34;102609.03;4973716;28;20254;-68
2022/03/27 02:19:28;;;;;;;34.83;29.48;;;4.60;99.90;;;4.11;82.73;102619.00;4973623;28;20194;-68
2022/03/27 02:21:57;;;;;;;34.15;30.35;;;4.50;99.90;;;4.14;82.81;102621.44;4973664;28;20271;-68
2022/03/27 02:24:25;;;;;;;37.97;30.27;;;4.40;99.90;;;4.18;82.55;102629.13;4973830;28;20183;-69
2022/03/27 02:26:57;;;;;;;35.97;31.20;;;4.50;99.90;;;4.28;82.65;102626.56;4973857;28;20242;-67
2022/03/27 02:29:25;;;;;;;44.17;37.20;;;4.50;99.90;;;4.31;82.31;102626.31;4973518;28;20397;-68
2022/03/27 02:31:55;;;;;;;44.58;39.08;;;4.50;99.90;;;4.10;82.60;102623.50;4988441;28;20554;-69
2022/03/27 02:34:24;;;;;;;42.40;37.08;;;4.50;99.90;;;4.02;83.13;102625.06;4973687;28;20255;-67
2022/03/27 02:36:52;;;;;;;40.00;32.90;;;4.40;99.90;;;4.19;83.55;102624.63;4973630;28;20187;-69
2022/03/27 02:39:21;;;;;;;40.35;34.85;;;4.50;99.90;;;4.33;83.07;102625.25;4974970;28;20191;-69
2022/03/27 02:41:50;;;;;;;38.92;33.85;;;4.60;99.90;;;4.20;83.22;102626.34;4974059;28;20203;-68
2022/03/27 02:44:22;;;;;;;39.78;35.58;;;4.50;99.90;;;4.10;83.73;102633.38;4974320;28;20226;-69
2022/03/27 02:46:51;;;;;;;38.83;32.53;;;4.40;99.90;;;4.18;83.21;102630.94;4976531;28;20207;-68
2022/03/27 02:49:20;;;;;;;38.03;31.83;;;4.40;99.90;;;4.27;82.79;102630.22;4980099;28;20207;-68
2022/03/27 02:51:49;;;;;;;35.38;31.67;;;4.50;99.90;;;4.08;82.99;102633.47;4977380;28;20183;-68
2022/03/27 02:54:18;;;;;;;38.13;29.10;;;4.40;99.90;;;4.04;83.00;102633.84;4977683;28;20242;-67
2022/03/27 02:56:47;;;;;;;33.75;29.25;;;4.30;99.90;;;4.08;82.80;102625.44;4977422;28;20556;-68
2022/03/27 02:59:16;;;;;;;35.47;29.77;;;4.40;99.90;;;4.00;83.10;102630.53;4977363;28;20262;-69
2022/03/27 03:01:46;;;;;;;45.10;33.95;;;4.30;99.90;;;4.01;83.17;102636.75;4977326;28;20175;-67
2022/03/27 03:04:15;;;;;;;32.90;29.50;;;4.30;99.90;;;3.89;83.58;102636.72;4977274;28;20211;-67
2022/03/27 03:06:45;;;;;;;36.65;32.65;;;4.20;99.90;;;3.87;83.62;102635.13;4977389;28;20359;-68
2022/03/27 03:09:14;;;;;;;35.28;31.58;;;4.20;99.90;;;3.89;83.40;102638.53;4977380;28;20201;-70
2022/03/27 03:11:44;;;;;;;37.80;33.60;;;4.20;99.90;;;3.82;83.69;102640.00;4992498;28;20187;-68
2022/03/27 03:14:13;;;;;;;42.17;37.30;;;4.10;99.90;;;3.81;83.57;102641.81;4977336;28;20203;-67
2022/03/27 03:16:56;;;;;;;40.60;36.08;;;4.10;99.90;;;3.93;83.58;102640.00;4977142;28;20259;-70
2022/03/27 03:19:25;;;;;;;39.72;35.33;;;4.10;99.90;;;3.74;83.65;102632.50;4977578;28;20212;-68
2022/03/27 03:21:54;;;;;;;38.50;34.13;;;4.10;99.90;;;3.62;83.88;102633.44;4977465;28;20682;-67
2022/03/27 03:24:25;;;;;;;38.90;34.78;;;4.00;99.90;;;3.56;84.24;102633.03;4977704;28;20171;-68
2022/03/27 03:26:54;;;;;;;41.85;37.35;;;3.90;99.90;;;3.51;84.61;102628.03;4977335;28;20207;-67
2022/03/27 03:29:23;;;;;;;41.28;34.45;;;3.90;99.90;;;3.55;84.93;102621.47;4977032;28;20202;-68
2022/03/27 03:31:52;;;;;;;41.97;37.28;;;3.90;99.90;;;3.68;85.07;102624.94;4976888;28;20242;-68
2022/03/27 03:34:22;;;;;;;46.70;39.90;;;3.90;99.90;;;3.63;85.12;102634.31;4975723;28;20279;-68
2022/03/27 03:36:51;;;;;;;41.00;36.70;;;3.90;99.90;;;3.55;85.14;102629.50;4976789;28;20183;-68
2022/03/27 03:39:20;;;;;;;40.78;36.58;;;3.90;99.90;;;3.61;85.23;102625.53;4976924;28;20187;-69
2022/03/27 03:41:48;;;;;;;40.78;36.38;;;3.90;99.90;;;3.48;85.05;102633.63;4976507;28;20182;-68
2022/03/27 03:44:26;;;;;;;42.55;37.33;;;3.80;99.90;;;3.41;85.41;102635.03;4976638;28;20199;-68
2022/03/27 03:46:55;;;;;;;44.20;35.30;;;3.80;99.90;;;3.45;85.91;102632.00;4976594;28;20226;-68
2022/03/27 03:49:26;;;;;;;44.25;37.42;;;3.70;99.90;;;3.41;85.75;102635.03;4976572;28;20661;-68
2022/03/27 03:51:56;;;;;;;42.33;36.92;;;3.70;99.90;;;3.44;85.88;102634.78;4976710;28;20704;-68
2022/03/27 03:54:24;;;;;;;43.35;38.58;;;3.70;99.90;;;3.46;85.82;102632.88;4976647;28;20615;-68
2022/03/27 03:56:53;;;;;;;42.55;36.85;;;3.80;99.90;;;3.46;86.18;102622.16;4976507;28;20195;-68
2022/03/27 03:59:22;;;;;;;40.88;36.40;;;3.70;99.90;;;3.36;86.17;102615.78;4975549;28;20222;-68
2022/03/27 04:01:58;;;;;;;43.40;37.47;;;3.70;99.90;;;3.30;86.23;102626.94;4976241;28;20193;-69
2022/03/27 04:04:30;;;;;;;45.10;39.55;;;3.60;99.90;;;3.31;86.42;102624.16;4976781;28;20300;-69
2022/03/27 04:06:59;;;;;;;43.05;38.45;;;3.60;99.90;;;3.38;86.06;102619.22;4977733;28;20274;-67
2022/03/27 04:09:29;;;;;;;45.92;40.08;;;3.70;99.90;;;3.36;86.06;102616.66;4996571;28;20283;-68
2022/03/27 04:11:58;;;;;;;46.80;41.70;;;3.70;99.90;;;3.32;86.12;102615.16;4994775;28;20251;-68
2022/03/27 04:14:28;;;;;;;44.08;38.67;;;3.60;99.90;;;3.27;85.98;102617.34;4996081;28;20175;-68
2022/03/27 04:16:57;;;;;;;49.88;42.42;;;3.60;99.90;;;3.21;86.18;102617.78;4992658;28;20216;-68
2022/03/27 04:19:27;;;;;;;49.60;41.92;;;3.50;99.90;;;3.22;85.44;102616.81;4993976;28;20206;-68
2022/03/27 04:21:56;;;;;;;51.53;43.20;;;3.60;99.90;;;3.08;85.66;102616.97;4986523;28;20281;-68
2022/03/27 04:24:25;;;;;;;44.47;39.72;;;3.50;99.90;;;3.17;85.24;102620.78;4976299;28;20179;-68
2022/03/27 04:26:54;;;;;;;44.90;40.20;;;3.50;99.90;;;3.08;85.49;102619.66;4976074;28;20183;-67
2022/03/27 04:29:23;;;;;;;48.45;43.35;;;3.40;99.90;;;3.29;84.99;102618.06;4975852;28;20272;-68
2022/03/27 04:31:52;;;;;;;48.00;40.15;;;3.50;99.90;;;3.37;84.26;102625.53;4974498;28;20677;-68
2022/03/27 04:34:21;;;;;;;46.33;41.22;;;3.60;99.90;;;3.29;84.43;102620.72;4976078;28;20279;-67
2022/03/27 04:36:52;;;;;;;48.67;43.55;;;3.60;99.90;;;3.24;84.21;102627.41;4974559;28;20286;-67
2022/03/27 04:39:22;;;;;;;51.20;41.53;;;3.60;99.90;;;3.14;84.28;102621.03;4975617;28;20195;-68
2022/03/27 04:41:51;;;;;;;46.35;41.35;;;3.50;99.90;;;3.06;84.05;102614.41;4975768;28;20181;-70
2022/03/27 04:44:20;;;;;;;50.17;40.28;;;3.50;99.90;;;3.01;84.20;102618.38;5076255;23;20262;-67
2022/03/27 04:46:49;;;;;;;46.28;38.85;;;3.40;99.90;;;2.95;84.34;102616.16;4975208;28;20183;-66
2022/03/27 04:49:18;;;;;;;46.80;41.90;;;3.40;99.90;;;3.13;83.81;102613.97;4975134;28;20199;-66
2022/03/27 04:51:47;;;;;;;50.10;42.95;;;3.40;99.90;;;3.20;83.74;102604.50;4975412;28;20207;-67
2022/03/27 04:54:17;;;;;;;43.38;38.20;;;3.50;99.90;;;3.26;83.71;102598.69;4976588;28;20303;-67
2022/03/27 04:56:48;;;;;;;45.15;38.58;;;3.60;99.90;;;3.24;83.61;102603.34;4976341;28;20197;-68
2022/03/27 04:59:17;;;;;;;43.00;38.20;;;3.50;99.90;;;3.43;83.58;102612.56;4975944;28;20198;-67
2022/03/27 05:01:46;;;;;;;41.67;37.20;;;3.60;99.90;;;3.47;83.22;102607.81;4975876;28;20707;-67
2022/03/27 05:04:15;;;;;;;43.78;39.10;;;3.70;99.90;;;3.55;82.77;102608.09;4975285;28;20212;-65
2022/03/27 05:06:43;;;;;;;44.47;37.70;;;3.70;99.90;;;3.56;82.63;102606.28;4974940;28;20192;-65
2022/03/27 05:09:13;;;;;;;51.03;41.33;;;3.70;99.90;;;3.42;82.64;102615.34;4975161;28;20811;-66
2022/03/27 05:11:43;;;;;;;49.40;41.25;;;3.70;99.90;;;3.43;82.79;102612.56;4975042;28;20196;-66
2022/03/27 05:14:12;;;;;;;45.67;40.50;;;3.70;99.90;;;3.43;82.57;102617.91;4975206;28;20692;-66
2022/03/27 05:16:41;;;;;;;43.97;39.35;;;3.70;99.90;;;3.51;82.37;102622.69;4974987;28;20180;-66
2022/03/27 05:19:10;;;;;;;48.53;40.95;;;3.70;99.90;;;3.48;82.77;102628.28;4974926;28;20258;-66
2022/03/27 05:21:39;;;;;;;49.05;40.65;;;3.70;99.90;;;3.56;82.67;102625.88;4974677;28;20174;-66
2022/03/27 05:24:09;;;;;;;45.65;40.65;;;3.70;99.90;;;3.61;81.54;102625.53;4974583;28;20218;-66
2022/03/27 05:26:38;;;;;;;46.65;39.88;;;3.80;99.90;;;3.71;81.08;102631.91;4975193;28;20190;-68
2022/03/27 05:29:10;;;;;;;45.60;40.47;;;3.80;99.90;;;3.72;80.63;102623.75;4975555;28;20187;-66
2022/03/27 05:31:39;;;;;;;46.60;38.20;;;3.80;99.90;;;3.85;79.87;102626.34;4975132;28;20223;-65
2022/03/27 05:34:08;;;;;;;48.33;38.95;;;3.90;99.90;;;4.02;79.66;102619.72;4975281;28;20207;-65
2022/03/27 05:36:36;;;;;;;43.75;37.75;;;4.00;99.90;;;4.08;79.53;102632.63;4975056;28;20187;-66
2022/03/27 05:39:05;;;;;;;45.72;39.30;;;4.20;99.90;;;4.12;79.40;102637.63;4974919;28;20743;-66
2022/03/27 05:41:34;;;;;;;44.40;39.65;;;4.20;99.90;;;4.17;79.15;102639.94;4974704;28;20211;-66
2022/03/27 05:44:03;;;;;;;43.30;38.45;;;4.30;99.90;;;4.35;78.42;102635.88;4974139;28;20219;-66
2022/03/27 05:46:33;;;;;;;46.85;40.72;;;4.40;99.90;;;4.33;77.95;102643.16;4974264;28;20186;-66
2022/03/27 05:49:03;;;;;;;49.85;42.47;;;4.40;99.90;;;4.36;77.54;102648.25;4973761;28;20442;-65
2022/03/27 05:51:33;;;;;;;45.40;40.25;;;4.50;99.90;;;4.41;76.85;102645.22;4973818;28;20306;-66
2022/03/27 05:54:01;;;;;;;50.97;39.10;;;4.50;99.90;;;4.42;76.46;102652.31;4974115;28;20215;-66
2022/03/27 05:56:30;;;;;;;45.95;39.97;;;4.50;99.90;;;4.50;76.44;102664.16;4974059;28;20218;-66
2022/03/27 05:58:59;;;;;;;50.65;40.03;;;4.60;99.90;;;4.59;76.48;102663.44;4974152;28;20218;-66
2022/03/27 06:01:28;;;;;;;48.90;43.15;;;4.60;99.90;;;4.69;75.83;102669.78;4974180;28;20194;-67
2022/03/27 06:03:58;;;;;;;45.20;40.40;;;4.70;99.90;;;4.77;75.60;102672.69;4973854;28;20254;-67
2022/03/27 06:06:29;;;;;;;43.90;39.10;;;4.80;99.90;;;4.80;75.56;102677.81;4973908;28;20255;-67
2022/03/27 06:08:58;;;;;;;44.15;39.50;;;4.90;99.90;;;4.90;75.58;102674.41;4974516;28;20557;-69
2022/03/27 06:11:28;;;;;;;46.05;41.10;;;4.90;99.90;;;4.87;75.96;102680.88;4974223;28;20199;-67
2022/03/27 06:13:57;;;;;;;45.55;40.47;;;4.90;99.90;;;4.89;76.26;102681.59;4973882;28;20292;-67
2022/03/27 06:16:31;;;;;;;46.08;37.42;;;4.90;99.90;;;4.98;75.98;102674.66;4973920;28;20180;-67
2022/03/27 06:19:01;;;;;;;37.90;33.90;;;5.00;99.90;;;5.01;75.68;102682.47;4974018;28;20187;-66
2022/03/27 06:21:30;;;;;;;40.92;36.55;;;5.10;99.90;;;5.12;75.47;102683.31;4973573;28;20176;-65
2022/03/27 06:23:59;;;;;;;42.35;35.75;;;5.20;99.90;;;5.15;75.73;102687.56;4973952;28;20607;-65
2022/03/27 06:26:28;;;;;;;40.95;35.05;;;5.20;99.90;;;5.23;75.62;102685.09;4974396;28;20266;-65
2022/03/27 06:28:57;;;;;;;37.92;34.10;;;5.20;99.90;;;5.37;75.03;102682.19;4974196;28;20203;-67
2022/03/27 06:31:26;;;;;;;44.47;37.25;;;5.30;99.90;;;5.65;74.62;102691.50;4974358;28;20206;-65
2022/03/27 06:33:54;;;;;;;39.90;35.83;;;5.50;99.90;;;5.69;74.39;102691.13;4974023;28;20235;-65
2022/03/27 06:36:25;;;;;;;38.15;33.50;;;5.70;99.90;;;5.87;74.29;102685.22;4974114;28;20712;-65
2022/03/27 06:38:53;;;;;;;36.58;32.65;;;5.80;99.90;;;5.95;73.77;102694.38;4973990;28;20222;-65
2022/03/27 06:41:22;;;;;;;34.17;30.85;;;6.00;99.90;;;6.08;73.79;102688.81;4973675;28;20183;-65
2022/03/27 06:43:51;;;;;;;39.42;35.35;;;6.10;99.90;;;6.14;73.37;102693.69;4973642;28;20261;-66
2022/03/27 06:46:19;;;;;;;40.72;34.28;;;6.20;99.90;;;6.22;73.23;102691.19;4973876;28;20652;-66
2022/03/27 06:48:51;;;;;;;36.63;32.72;;;6.30;99.90;;;6.33;73.43;102698.34;4973492;28;20203;-67
2022/03/27 06:51:20;;;;;;;36.90;31.92;;;6.30;99.90;;;6.55;72.95;102695.50;4973555;28;20254;-67
2022/03/27 06:53:50;;;;;;;36.63;32.58;;;6.50;99.90;;;6.71;72.48;102698.56;4973125;28;20214;-66
2022/03/27 06:56:19;;;;;;;37.90;33.92;;;6.60;99.90;;;6.79;72.65;102703.28;4973158;28;20199;-65
2022/03/27 06:58:48;;;;;;;37.13;33.63;;;6.70;99.90;;;6.99;72.18;102699.69;4973040;28;20274;-67
2022/03/27 07:04:03;;;;;;;36.63;32.97;;;6.90;99.90;;;7.35;71.57;102693.75;4972747;28;20246;-67
2022/03/27 07:06:32;;;;;;;37.90;32.35;;;7.10;99.90;;;7.50;70.84;102696.06;4973057;28;20192;-65
2022/03/27 07:09:04;;;;;;;32.97;29.67;;;7.30;99.90;;;7.81;70.31;102701.19;4973382;28;20196;-66
2022/03/27 07:11:32;;;;;;;144.98;132.35;;;7.60;99.90;;;8.09;69.40;102704.88;4972903;28;20755;-66
2022/03/27 07:14:01;;;;;;;77.40;70.32;;;7.90;99.90;;;8.07;69.00;102701.50;4972829;28;20591;-66
2022/03/27 07:16:31;;;;;;;47.95;43.30;;;8.00;99.90;;;8.03;69.65;102693.84;4973424;28;20320;-66
2022/03/27 07:19:00;;;;;;;34.80;31.02;;;7.90;99.90;;;8.33;68.80;102695.56;4973962;28;20379;-66
2022/03/27 07:21:30;;;;;;;37.58;33.17;;;8.20;99.90;;;8.43;68.57;102685.59;4974608;28;20192;-67
2022/03/27 07:24:00;;;;;;;37.90;34.05;;;8.30;99.90;;;8.61;68.17;102700.06;4975155;28;20211;-66
2022/03/27 07:26:31;;;;;;;33.70;30.38;;;8.40;99.90;;;8.84;67.53;102696.00;4975882;28;20567;-67
2022/03/27 07:28:59;;;;;;;32.08;29.00;;;8.70;99.90;;;9.02;67.59;102687.97;4974966;28;20190;-65
2022/03/27 07:31:28;;;;;;;35.33;31.30;;;8.80;99.90;;;9.04;67.56;102694.94;4974059;28;20195;-66
2022/03/27 07:33:57;;;;;;;35.05;31.48;;;8.90;99.90;;;9.00;67.57;102695.38;4976850;28;20207;-66
2022/03/27 07:36:26;;;;;;;37.15;33.50;;;8.90;99.90;;;9.21;67.57;102692.44;4977096;28;20207;-65
2022/03/27 07:38:54;;;;;;;41.78;31.50;;;9.00;99.90;;;9.54;66.74;102689.09;4977088;28;20176;-66
2022/03/27 07:41:23;;;;;;;37.33;30.92;;;9.20;99.90;;;9.84;66.11;102694.16;4976852;28;20199;-66
2022/03/27 07:43:53;;;;;;;31.42;28.13;;;9.60;97.40;;;9.97;65.88;102681.09;4976882;28;20250;-65
2022/03/27 07:46:22;;;;;;;34.60;30.90;;;9.70;95.40;;;10.01;65.91;102687.94;4976796;28;20262;-67
2022/03/27 07:48:51;;;;;;;30.30;26.92;;;9.80;95.60;;;10.26;65.42;102688.19;4976624;28;20242;-67
2022/03/27 07:51:23;;;;;;;29.33;26.38;;;10.00;93.80;;;10.37;65.50;102698.72;4977174;28;20203;-66
2022/03/27 07:53:53;;;;;;;27.00;22.25;;;10.10;92.80;;;10.60;64.82;102693.69;4976043;28;20230;-66
2022/03/27 07:56:21;;;;;;;24.40;20.83;;;10.40;92.70;;;10.65;65.54;102692.16;4976194;28;20190;-67
2022/03/27 07:58:52;;;;;;;23.45;21.15;;;10.40;93.30;;;10.86;65.32;102691.78;4975745;28;20684;-67
2022/03/27 08:01:23;;;;;;;25.37;22.67;;;10.60;92.50;;;10.92;64.91;102696.56;4976700;28;20582;-69
2022/03/27 08:03:56;;;;;;;24.60;22.30;;;10.70;91.30;;;11.09;64.60;102692.06;4976226;28;20448;-67
2022/03/27 08:06:25;;;;;;;22.70;20.40;;;10.80;90.70;;;11.31;63.64;102684.25;4976741;28;20415;-66
2022/03/27 08:08:55;;;;;;;25.67;22.93;;;11.20;80.70;;;11.23;63.71;102676.06;4976183;28;20474;-66
2022/03/27 08:11:24;;;;;;;22.23;19.80;;;11.10;77.80;;;11.37;63.46;102682.75;4975836;28;20430;-65
2022/03/27 08:13:53;;;;;;;22.30;20.00;;;11.20;76.00;;;11.42;63.39;102679.53;4975865;28;20471;-66
2022/03/27 08:16:23;;;;;;;24.20;21.70;;;11.20;76.10;;;11.68;62.96;102675.69;4975495;28;20981;-66
2022/03/27 08:18:52;;;;;;;21.60;19.30;;;11.40;74.80;;;11.87;62.54;102684.56;4975076;28;20409;-66
2022/03/27 08:21:21;;;;;;;23.20;18.63;;;11.70;70.70;;;11.88;62.67;102670.84;4975343;28;20405;-66
2022/03/27 08:23:50;;;;;;;20.77;18.50;;;11.80;67.10;;;11.73;62.73;102672.50;4975717;28;20591;-65
2022/03/27 08:29:05;;;;;;;21.47;19.27;;;11.80;63.90;;;12.14;62.29;102676.13;4974986;28;20469;-66
2022/03/27 08:31:35;;;;;;;19.33;17.43;;;11.90;65.00;;;12.16;61.94;102674.06;4975159;28;20431;-67
2022/03/27 08:34:05;;;;;;;20.40;18.30;;;12.10;59.90;;;12.16;62.16;102674.06;4975050;28;20478;-65
2022/03/27 08:36:34;;;;;;;20.90;18.30;;;12.10;58.40;;;12.25;61.85;102674.94;4975407;28;20430;-67
2022/03/27 08:39:03;;;;;;;21.27;18.97;;;12.10;57.90;;;12.34;61.43;102655.78;4975529;28;20397;-64
2022/03/27 08:41:34;;;;;;;18.70;16.73;;;12.20;56.70;;;12.14;62.05;102666.13;4974976;28;20404;-65
2022/03/27 08:44:04;;;;;;;22.00;19.70;;;12.10;55.70;;;12.42;61.56;102661.19;4974231;28;20486;-66
2022/03/27 08:46:34;;;;;;;19.17;17.13;;;12.30;56.70;;;12.20;61.73;102667.28;4974791;28;20397;-65
2022/03/27 08:49:12;;;;;;;18.40;16.50;;;12.10;54.70;;;12.32;61.31;102665.09;4976056;28;20562;-67
2022/03/27 08:51:48;;;;;;;19.50;17.50;;;12.20;54.30;;;12.19;61.43;102668.31;4977216;28;20413;-66
2022/03/27 08:54:23;;;;;;;21.97;18.57;;;12.10;53.90;;;12.50;61.28;102666.59;4975439;28;20433;-66
2022/03/27 08:57:05;;;;;;;21.13;18.70;;;12.30;53.90;;;12.76;59.93;102670.97;4977184;28;20401;-67
2022/03/27 08:59:36;;;;;;;20.17;17.97;;;12.50;50.40;;;12.90;59.42;102667.53;4975154;28;20427;-66
2022/03/27 09:02:07;;;;;;;19.00;17.17;;;12.70;46.60;;;13.02;59.40;102671.56;4974916;28;20515;-66
2022/03/27 09:04:38;;;;;;;20.80;18.87;;;12.90;45.00;;;12.43;60.53;102671.03;4974610;28;20447;-67
2022/03/27 09:07:06;;;;;;;23.43;21.20;;;12.60;43.90;;;12.49;60.71;102670.31;4975016;28;20411;-66
2022/03/27 09:09:35;;;;;;;23.63;21.07;;;12.40;47.00;;;12.91;59.34;102674.66;4975032;28;20429;-65
2022/03/27 09:12:06;;;;;;;19.33;17.43;;;12.60;47.70;;;12.67;58.76;102672.84;4974741;28;20755;-66
2022/03/27 09:14:35;;;;;;;19.30;17.50;;;12.70;39.80;;;12.54;59.48;102662.50;4974509;28;20454;-65
2022/03/27 09:17:08;;;;;;;19.50;17.60;;;12.60;40.00;;;12.41;59.37;102674.91;4974665;28;20405;-67
2022/03/27 09:19:39;;;;;;;18.87;17.07;;;12.50;38.80;;;12.48;59.62;102678.66;4974613;28;20563;-67
2022/03/27 09:22:17;;;;;;;19.70;16.00;;;12.50;40.20;;;12.36;59.01;102670.00;4975738;28;20458;-67
2022/03/27 09:24:49;;;;;;;18.43;16.60;;;12.40;37.00;;;12.38;59.03;102667.13;4975144;28;20438;-65
2022/03/27 09:27:30;;;;;;;20.37;18.23;;;12.40;37.50;;;12.75;58.54;102669.25;4974609;28;20435;-65
2022/03/27 09:30:06;;;;;;;16.67;15.10;;;12.50;38.70;;;13.12;57.44;102661.34;4974512;28;20825;-66
2022/03/27 09:32:46;;;;;;;16.27;14.53;;;12.70;36.20;;;13.43;56.72;102662.22;4974439;28;20735;-66
2022/03/27 09:35:18;;;;;;;16.97;15.27;;;13.00;33.20;;;13.25;55.90;102672.53;4975227;28;20432;-67
2022/03/27 09:37:49;;;;;;;15.93;14.23;;;13.00;29.80;;;13.65;55.52;102657.03;4974666;28;20408;-68
2022/03/27 09:40:18;;;;;;;15.93;14.23;;;13.20;29.70;;;14.00;54.88;102664.56;4974422;28;20959;-67
2022/03/27 09:42:47;;;;;;;14.17;12.87;;;13.50;28.50;;;13.95;53.66;102661.53;4973963;28;20423;-66
2022/03/27 09:45:19;;;;;;;18.47;16.57;;;13.60;26.00;;;14.09;53.68;102660.75;4973944;28;20449;-67
2022/03/27 09:47:53;;;;;;;12.83;11.60;;;13.80;25.00;;;13.44;53.75;102653.06;4972301;28;20458;-68
2022/03/27 09:50:35;;;;;;;11.27;10.13;;;13.80;21.30;;;13.41;53.93;102657.97;4973492;28;20481;-69
2022/03/27 09:53:26;;;;;;;56.80;52.40;;;13.50;21.50;;;13.20;54.48;102653.19;4973555;28;20449;-67
2022/03/27 09:56:13;;;;;;;17.13;14.63;;;13.30;21.80;;;13.21;54.63;102643.16;4972797;28;20480;-66
2022/03/27 09:58:44;;;;;;;18.90;16.87;;;13.30;22.20;;;13.58;54.32;102645.16;4974099;28;20466;-68
2022/03/27 10:01:17;;;;;;;13.40;12.10;;;13.40;22.80;;;13.77;53.35;102633.78;4973740;28;20509;-66
2022/03/27 10:04:03;;;;;;;14.53;13.00;;;13.50;22.40;;;13.84;53.50;102634.78;4973405;28;20862;-68
2022/03/27 10:06:35;;;;;;;17.87;16.07;;;13.60;21.90;;;14.60;52.22;102639.22;4973517;28;20434;-67
2022/03/27 10:09:06;;;;;;;13.63;12.27;;;14.10;21.30;;;14.58;51.00;102641.28;4973889;28;20454;-70
2022/03/27 10:11:39;;;;;;;18.80;16.90;;;14.30;18.20;;;14.26;50.28;102629.66;4974612;28;20431;-66
2022/03/27 10:14:09;;;;;;;24.40;20.03;;;14.30;15.90;;;14.22;51.16;102633.78;4973499;28;20888;-65
2022/03/27 10:16:46;;;;;;;19.20;17.50;;;14.20;16.30;;;14.14;51.46;102628.38;4973525;28;20482;-66
2022/03/27 10:19:31;;;;;;;17.77;14.33;;;14.20;16.40;;;14.24;52.21;102615.34;4973213;28;20393;-67
2022/03/27 10:22:03;;;;;;;11.40;10.33;;;14.00;17.30;;;14.50;50.75;102623.13;4973189;28;20493;-67
2022/03/27 10:24:34;;;;;;;11.27;9.60;;;14.30;16.50;;;14.37;51.08;102619.38;4973215;28;20483;-66
2022/03/27 10:27:05;;;;;;;10.47;9.13;;;14.20;15.90;;;14.45;50.35;102611.09;4973093;28;20493;-65
2022/03/27 10:29:36;;;;;;;11.77;9.30;;;14.20;15.10;;;14.71;49.49;102616.97;4988048;28;20439;-67
2022/03/27 10:32:11;;;;;;;15.00;10.37;;;14.60;14.00;;;14.50;49.97;102617.69;4973268;28;20504;-69
2022/03/27 10:34:55;;;;;;;9.90;8.97;;;14.40;13.60;;;14.06;49.94;102611.28;4973587;28;20474;-67